sensor_id;sensor_type;location;lat;lon;timestamp;pressure;altitude;pressure_sealevel;temperature;humidity
22662;BME280;11497;52.222;21.246;2023-03-22T00:01:22;100409.41;;;-0.04;100.00
22662;BME280;11497;52.222;21.246;2023-03-22T00:03:50;100408.50;;;-0.07;100.00
22662;BME280;11497;52.222;21.246;2023-03-22T00:06:19;100406.78;;;-0.08;100.00
22662;BME280;11497;52.222;21.246;2023-03-22T00:08:49;100405.91;;;-0.10;100.00
22662;BME280;11497;52.222;21.246;2023-03-22T00:11:20;100405.84;;;-0.16;100.00
22662;BME280;11497;52.222;21.246;2023-03-22T00:13:49;100412.78;;;-0.09;100.00
22662;BME280;11497;52.222;21.246;2023-03-22T00:16:19;100402.50;;;-0.09;100.00
22662;BME280;11497;52.222;21.246;2023-03-22T00:18:48;100402.41;;;-0.17;100.00
22662;BME280;11497;52.222;21.246;2023-03-22T00:21:17;100391.31;;;-0.11;100.00
22662;BME280;11497;52.222;21.246;2023-03-22T00:23:45;100388.78;;;-0.07;100.00
22662;BME280;11497;52.222;21.246;2023-03-22T00:26:13;100384.53;;;-0.03;100.00
22662;BME280;11497;52.222;21.246;2023-03-22T00:28:42;100382.75;;;-0.10;100.00
22662;BME280;11497;52.222;21.246;2023-03-22T00:31:10;100389.53;;;-0.18;100.00
22662;BME280;11497;52.222;21.246;2023-03-22T00:33:38;100381.69;;;-0.29;100.00
22662;BME280;11497;52.222;21.246;2023-03-22T00:36:09;100384.28;;;-0.27;100.00
22662;BME280;11497;52.222;21.246;2023-03-22T00:38:37;100388.50;;;-0.32;100.00
22662;BME280;11497;52.222;21.246;2023-03-22T00:41:16;100379.16;;;-0.27;100.00
22662;BME280;11497;52.222;21.246;2023-03-22T00:43:45;100380.81;;;-0.32;100.00
22662;BME280;11497;52.222;21.246;2023-03-22T00:46:14;100377.31;;;-0.38;100.00
22662;BME280;11497;52.222;21.246;2023-03-22T00:48:42;100379.13;;;-0.29;100.00
22662;BME280;11497;52.222;21.246;2023-03-22T00:51:11;100384.19;;;-0.37;100.00
22662;BME280;11497;52.222;21.246;2023-03-22T00:53:39;100384.16;;;-0.40;100.00
22662;BME280;11497;52.222;21.246;2023-03-22T00:56:11;100382.38;;;-0.47;100.00
22662;BME280;11497;52.222;21.246;2023-03-22T00:58:54;100367.78;;;-0.49;100.00
22662;BME280;11497;52.222;21.246;2023-03-22T01:01:22;100368.75;;;-0.37;100.00
22662;BME280;11497;52.222;21.246;2023-03-22T01:03:50;100370.59;;;-0.26;100.00
22662;BME280;11497;52.222;21.246;2023-03-22T01:06:18;100374.94;;;-0.19;100.00
22662;BME280;11497;52.222;21.246;2023-03-22T01:08:46;100368.84;;;-0.29;100.00
22662;BME280;11497;52.222;21.246;2023-03-22T01:11:17;100367.94;;;-0.32;100.00
22662;BME280;11497;52.222;21.246;2023-03-22T01:13:45;100365.34;;;-0.36;100.00
22662;BME280;11497;52.222;21.246;2023-03-22T01:16:15;100370.34;;;-0.49;100.00
22662;BME280;11497;52.222;21.246;2023-03-22T01:18:43;100365.22;;;-0.49;100.00
22662;BME280;11497;52.222;21.246;2023-03-22T01:21:11;100374.69;;;-0.47;100.00
22662;BME280;11497;52.222;21.246;2023-03-22T01:23:39;100360.09;;;-0.46;100.00
22662;BME280;11497;52.222;21.246;2023-03-22T01:26:07;100360.88;;;-0.53;100.00
22662;BME280;11497;52.222;21.246;2023-03-22T01:28:36;100358.25;;;-0.58;100.00
22662;BME280;11497;52.222;21.246;2023-03-22T01:31:04;100361.75;;;-0.53;100.00
22662;BME280;11497;52.222;21.246;2023-03-22T01:33:32;100362.72;;;-0.39;100.00
22662;BME280;11497;52.222;21.246;2023-03-22T01:35:59;100365.47;;;-0.23;100.00
22662;BME280;11497;52.222;21.246;2023-03-22T01:38:28;100361.34;;;-0.08;100.00
22662;BME280;11497;52.222;21.246;2023-03-22T01:40:58;100357.94;;;-0.07;100.00
22662;BME280;11497;52.222;21.246;2023-03-22T01:43:29;100351.03;;;-0.09;100.00
22662;BME280;11497;52.222;21.246;2023-03-22T01:45:58;100348.47;;;-0.09;100.00
22662;BME280;11497;52.222;21.246;2023-03-22T01:48:29;100349.34;;;-0.07;100.00
22662;BME280;11497;52.222;21.246;2023-03-22T01:51:07;100347.72;;;0.07;100.00
22662;BME280;11497;52.222;21.246;2023-03-22T01:54:09;100338.47;;;0.27;100.00
22662;BME280;11497;52.222;21.246;2023-03-22T01:56:40;100341.03;;;0.24;100.00
22662;BME280;11497;52.222;21.246;2023-03-22T01:59:14;100334.06;;;0.13;100.00
22662;BME280;11497;52.222;21.246;2023-03-22T02:02:04;100334.91;;;0.13;100.00
22662;BME280;11497;52.222;21.246;2023-03-22T02:04:35;100328.16;;;0.24;100.00
22662;BME280;11497;52.222;21.246;2023-03-22T02:07:09;100329.72;;;0.07;100.00
22662;BME280;11497;52.222;21.246;2023-03-22T02:09:43;100330.63;;;0.14;100.00
22662;BME280;11497;52.222;21.246;2023-03-22T02:15:51;100318.69;;;0.23;100.00
22662;BME280;11497;52.222;21.246;2023-03-22T02:47:41;100319.66;;;0.38;100.00
22662;BME280;11497;52.222;21.246;2023-03-22T02:50:29;100311.06;;;0.32;100.00
22662;BME280;11497;52.222;21.246;2023-03-22T02:53:21;100303.28;;;0.26;100.00
22662;BME280;11497;52.222;21.246;2023-03-22T02:58:39;100293.78;;;0.19;100.00
22662;BME280;11497;52.222;21.246;2023-03-22T03:01:22;100295.53;;;0.23;100.00
22662;BME280;11497;52.222;21.246;2023-03-22T03:03:58;100291.28;;;0.27;100.00
22662;BME280;11497;52.222;21.246;2023-03-22T03:06:31;100299.88;;;0.29;100.00
22662;BME280;11497;52.222;21.246;2023-03-22T03:09:00;100298.09;;;0.22;100.00
22662;BME280;11497;52.222;21.246;2023-03-22T03:11:31;100300.75;;;0.32;100.00
22662;BME280;11497;52.222;21.246;2023-03-22T03:14:00;100290.47;;;0.32;100.00
22662;BME280;11497;52.222;21.246;2023-03-22T03:16:30;100293.94;;;0.41;100.00
22662;BME280;11497;52.222;21.246;2023-03-22T03:19:16;100298.25;;;0.49;100.00
22662;BME280;11497;52.222;21.246;2023-03-22T03:22:06;100286.22;;;0.45;100.00
22662;BME280;11497;52.222;21.246;2023-03-22T03:24:48;100297.38;;;0.40;100.00
22662;BME280;11497;52.222;21.246;2023-03-22T03:27:31;100294.78;;;0.35;100.00
22662;BME280;11497;52.222;21.246;2023-03-22T03:30:09;100301.69;;;0.42;100.00
22662;BME280;11497;52.222;21.246;2023-03-22T03:32:54;100298.19;;;0.32;100.00
22662;BME280;11497;52.222;21.246;2023-03-22T03:35:37;100294.75;;;0.32;100.00
22662;BME280;11497;52.222;21.246;2023-03-22T03:38:16;100283.63;;;0.38;100.00
22662;BME280;11497;52.222;21.246;2023-03-22T03:40:49;100291.31;;;0.31;100.00
22662;BME280;11497;52.222;21.246;2023-03-22T03:43:21;100278.50;;;0.45;100.00
22662;BME280;11497;52.222;21.246;2023-03-22T03:45:51;100284.47;;;0.37;100.00
22662;BME280;11497;52.222;21.246;2023-03-22T03:48:26;100284.56;;;0.52;100.00
22662;BME280;11497;52.222;21.246;2023-03-22T03:50:56;100294.81;;;0.46;100.00
22662;BME280;11497;52.222;21.246;2023-03-22T03:53:24;100288.81;;;0.47;100.00
22662;BME280;11497;52.222;21.246;2023-03-22T03:55:52;100282.00;;;0.55;100.00
22662;BME280;11497;52.222;21.246;2023-03-22T03:58:20;100287.13;;;0.52;100.00
22662;BME280;11497;52.222;21.246;2023-03-22T04:00:49;100286.25;;;0.50;100.00
22662;BME280;11497;52.222;21.246;2023-03-22T04:03:33;100282.00;;;0.55;100.00
22662;BME280;11497;52.222;21.246;2023-03-22T04:06:03;100283.63;;;0.44;100.00
22662;BME280;11497;52.222;21.246;2023-03-22T04:08:36;100283.63;;;0.44;100.00
22662;BME280;11497;52.222;21.246;2023-03-22T04:11:05;100288.81;;;0.50;100.00
22662;BME280;11497;52.222;21.246;2023-03-22T04:13:33;100289.69;;;0.52;100.00
22662;BME280;11497;52.222;21.246;2023-03-22T04:16:06;100287.22;;;0.67;100.00
22662;BME280;11497;52.222;21.246;2023-03-22T04:18:37;100287.97;;;0.52;100.00
22662;BME280;11497;52.222;21.246;2023-03-22T04:21:08;100283.69;;;0.50;100.00
22662;BME280;11497;52.222;21.246;2023-03-22T04:24:08;100288.00;;;0.54;100.00
22662;BME280;11497;52.222;21.246;2023-03-22T04:26:40;100289.78;;;0.64;100.00
22662;BME280;11497;52.222;21.246;2023-03-22T04:29:20;100282.94;;;0.69;100.00
22662;BME280;11497;52.222;21.246;2023-03-22T04:31:53;100277.00;;;0.82;100.00
22662;BME280;11497;52.222;21.246;2023-03-22T04:34:29;100280.34;;;0.66;100.00
22662;BME280;11497;52.222;21.246;2023-03-22T04:37:02;100288.94;;;0.68;100.00
22662;BME280;11497;52.222;21.246;2023-03-22T04:39:36;100279.50;;;0.70;100.00
22662;BME280;11497;52.222;21.246;2023-03-22T04:42:23;100288.94;;;0.70;100.00
22662;BME280;11497;52.222;21.246;2023-03-22T04:45:21;100282.16;;;0.82;100.00
22662;BME280;11497;52.222;21.246;2023-03-22T04:47:55;100287.31;;;0.85;100.00
22662;BME280;11497;52.222;21.246;2023-03-22T04:50:23;100290.78;;;0.96;100.00
22662;BME280;11497;52.222;21.246;2023-03-22T04:52:58;100289.13;;;1.11;100.00
22662;BME280;11497;52.222;21.246;2023-03-22T04:55:27;100287.38;;;1.10;100.00
22662;BME280;11497;52.222;21.246;2023-03-22T04:57:56;100286.53;;;1.09;100.00
22662;BME280;11497;52.222;21.246;2023-03-22T05:00:24;100287.44;;;1.31;100.00
22662;BME280;11497;52.222;21.246;2023-03-22T05:02:53;100292.59;;;1.22;100.00
22662;BME280;11497;52.222;21.246;2023-03-22T05:05:30;100290.88;;;1.36;100.00
22662;BME280;11497;52.222;21.246;2023-03-22T05:07:58;100288.31;;;1.42;100.00
22662;BME280;11497;52.222;21.246;2023-03-22T05:10:26;100289.19;;;1.47;100.00
22662;BME280;11497;52.222;21.246;2023-03-22T05:12:57;100291.81;;;1.59;100.00
22662;BME280;11497;52.222;21.246;2023-03-22T05:15:31;100294.41;;;1.65;100.00
22662;BME280;11497;52.222;21.246;2023-03-22T05:18:00;100297.84;;;1.83;100.00
22662;BME280;11497;52.222;21.246;2023-03-22T05:20:28;100303.00;;;1.80;100.00
22662;BME280;11497;52.222;21.246;2023-03-22T05:23:08;100303.88;;;1.98;100.00
22662;BME280;11497;52.222;21.246;2023-03-22T05:25:37;100301.25;;;2.21;100.00
22662;BME280;11497;52.222;21.246;2023-03-22T05:28:06;100304.69;;;2.26;100.00
22662;BME280;11497;52.222;21.246;2023-03-22T05:30:41;100300.41;;;2.33;100.00
22662;BME280;11497;52.222;21.246;2023-03-22T05:33:22;100299.41;;;2.80;100.00
22662;BME280;11497;52.222;21.246;2023-03-22T05:35:53;100314.09;;;2.73;100.00
22662;BME280;11497;52.222;21.246;2023-03-22T05:38:22;100307.94;;;3.05;100.00
22662;BME280;11497;52.222;21.246;2023-03-22T05:40:53;100309.66;;;3.07;100.00
22662;BME280;11497;52.222;21.246;2023-03-22T05:43:21;100313.03;;;3.26;100.00
22662;BME280;11497;52.222;21.246;2023-03-22T05:45:50;100298.97;;;3.70;100.00
22662;BME280;11497;52.222;21.246;2023-03-22T05:48:50;100306.63;;;3.85;100.00
22662;BME280;11497;52.222;21.246;2023-03-22T05:51:18;100305.66;;;3.95;100.00
22662;BME280;11497;52.222;21.246;2023-03-22T05:53:50;100304.66;;;4.14;100.00
22662;BME280;11497;52.222;21.246;2023-03-22T05:56:24;100301.16;;;4.18;100.00
22662;BME280;11497;52.222;21.246;2023-03-22T05:59:00;100294.94;;;4.34;100.00
22662;BME280;11497;52.222;21.246;2023-03-22T06:01:28;100299.03;;;4.60;100.00
22662;BME280;11497;52.222;21.246;2023-03-22T06:04:12;100296.94;;;4.92;100.00
22662;BME280;11497;52.222;21.246;2023-03-22T06:07:00;100303.25;;;5.38;100.00
22662;BME280;11497;52.222;21.246;2023-03-22T06:09:44;100309.13;;;5.53;98.78
22662;BME280;11497;52.222;21.246;2023-03-22T06:12:17;100315.78;;;5.69;97.90
22662;BME280;11497;52.222;21.246;2023-03-22T06:14:52;100315.16;;;6.12;94.74
22662;BME280;11497;52.222;21.246;2023-03-22T06:17:35;100317.44;;;6.30;94.47
22662;BME280;11497;52.222;21.246;2023-03-22T06:20:05;100313.72;;;6.91;93.72
22662;BME280;11497;52.222;21.246;2023-03-22T06:22:39;100313.88;;;7.27;91.73
22662;BME280;11497;52.222;21.246;2023-03-22T06:25:09;100322.03;;;7.09;89.40
22662;BME280;11497;52.222;21.246;2023-03-22T06:27:41;100313.75;;;7.33;87.66
22662;BME280;11497;52.222;21.246;2023-03-22T06:30:10;100314.84;;;7.61;85.91
22662;BME280;11497;52.222;21.246;2023-03-22T06:32:56;100318.06;;;8.08;83.50
22662;BME280;11497;52.222;21.246;2023-03-22T06:35:28;100311.97;;;8.45;81.26
22662;BME280;11497;52.222;21.246;2023-03-22T06:37:56;100312.97;;;8.39;79.00
22662;BME280;11497;52.222;21.246;2023-03-22T06:40:24;100308.06;;;8.25;80.08
22662;BME280;11497;52.222;21.246;2023-03-22T06:42:52;100311.91;;;8.79;81.18
22662;BME280;11497;52.222;21.246;2023-03-22T06:45:22;100303.25;;;9.66;79.10
22662;BME280;11497;52.222;21.246;2023-03-22T06:47:50;100305.22;;;10.41;76.04
22662;BME280;11497;52.222;21.246;2023-03-22T06:50:31;100303.72;;;10.83;72.65
22662;BME280;11497;52.222;21.246;2023-03-22T06:53:05;100305.91;;;11.42;70.88
22662;BME280;11497;52.222;21.246;2023-03-22T06:55:34;100295.97;;;11.50;69.20
22662;BME280;11497;52.222;21.246;2023-03-22T06:58:10;100295.41;;;11.42;68.47
22662;BME280;11497;52.222;21.246;2023-03-22T07:00:38;100301.78;;;11.35;67.75
22662;BME280;11497;52.222;21.246;2023-03-22T07:03:08;100307.03;;;11.58;68.28
22662;BME280;11497;52.222;21.246;2023-03-22T07:05:43;100299.31;;;12.41;65.98
22662;BME280;11497;52.222;21.246;2023-03-22T07:08:10;100296.09;;;12.55;64.18
22662;BME280;11497;52.222;21.246;2023-03-22T07:10:49;100294.22;;;12.97;63.58
22662;BME280;11497;52.222;21.246;2023-03-22T07:13:20;100291.97;;;13.46;62.00
22662;BME280;11497;52.222;21.246;2023-03-22T07:16:00;100289.84;;;13.73;60.79
22662;BME280;11497;52.222;21.246;2023-03-22T07:18:49;100284.97;;;13.28;60.23
22662;BME280;11497;52.222;21.246;2023-03-22T07:21:17;100280.00;;;13.22;60.01
22662;BME280;11497;52.222;21.246;2023-03-22T07:23:49;100285.13;;;13.05;61.00
22662;BME280;11497;52.222;21.246;2023-03-22T07:26:19;100272.63;;;13.10;60.37
22662;BME280;11497;52.222;21.246;2023-03-22T07:28:49;100270.53;;;13.18;60.69
22662;BME280;11497;52.222;21.246;2023-03-22T07:31:19;100271.13;;;13.79;60.33
22662;BME280;11497;52.222;21.246;2023-03-22T07:33:55;100274.06;;;14.26;58.99
22662;BME280;11497;52.222;21.246;2023-03-22T07:36:26;100270.41;;;14.46;58.13
22662;BME280;11497;52.222;21.246;2023-03-22T07:38:54;100269.25;;;14.69;57.66
22662;BME280;11497;52.222;21.246;2023-03-22T07:41:29;100261.97;;;15.39;55.89
22662;BME280;11497;52.222;21.246;2023-03-22T07:44:23;100255.91;;;15.21;54.38
22662;BME280;11497;52.222;21.246;2023-03-22T07:47:12;100264.84;;;15.34;53.97
22662;BME280;11497;52.222;21.246;2023-03-22T07:49:48;100252.25;;;16.02;53.18
22662;BME280;11497;52.222;21.246;2023-03-22T07:52:20;100252.75;;;17.24;50.61
22662;BME280;11497;52.222;21.246;2023-03-22T07:54:48;100262.81;;;18.26;47.37
22662;BME280;11497;52.222;21.246;2023-03-22T07:57:16;100264.88;;;19.12;45.65
22662;BME280;11497;52.222;21.246;2023-03-22T07:59:50;100266.63;;;19.49;43.34
22662;BME280;11497;52.222;21.246;2023-03-22T08:02:18;100258.34;;;19.41;42.45
22662;BME280;11497;52.222;21.246;2023-03-22T08:04:50;100253.75;;;19.56;41.40
22662;BME280;11497;52.222;21.246;2023-03-22T08:07:35;100243.59;;;19.98;40.71
22662;BME280;11497;52.222;21.246;2023-03-22T08:10:04;100257.03;;;20.77;39.13
22662;BME280;11497;52.222;21.246;2023-03-22T08:12:34;100249.50;;;21.49;38.00
22662;BME280;11497;52.222;21.246;2023-03-22T08:15:17;100251.34;;;21.81;36.81
22662;BME280;11497;52.222;21.246;2023-03-22T08:17:45;100248.50;;;22.67;35.95
22662;BME280;11497;52.222;21.246;2023-03-22T08:20:19;100241.63;;;23.85;33.86
22662;BME280;11497;52.222;21.246;2023-03-22T08:22:54;100236.28;;;23.75;33.31
22662;BME280;11497;52.222;21.246;2023-03-22T08:25:40;100253.19;;;24.24;32.47
22662;BME280;11497;52.222;21.246;2023-03-22T08:28:10;100246.44;;;25.23;31.79
22662;BME280;11497;52.222;21.246;2023-03-22T08:30:40;100242.31;;;24.54;30.63
22662;BME280;11497;52.222;21.246;2023-03-22T08:33:08;100233.34;;;24.17;30.99
22662;BME280;11497;52.222;21.246;2023-03-22T08:35:36;100232.28;;;24.66;30.54
22662;BME280;11497;52.222;21.246;2023-03-22T08:38:05;100232.38;;;25.21;30.53
22662;BME280;11497;52.222;21.246;2023-03-22T08:40:41;100241.31;;;25.39;30.03
22662;BME280;11497;52.222;21.246;2023-03-22T08:43:09;100239.81;;;25.00;29.77
22662;BME280;11497;52.222;21.246;2023-03-22T08:45:36;100239.09;;;24.98;29.75
22662;BME280;11497;52.222;21.246;2023-03-22T08:48:10;100238.97;;;24.33;30.04
22662;BME280;11497;52.222;21.246;2023-03-22T08:51:05;100241.91;;;24.20;30.39
22662;BME280;11497;52.222;21.246;2023-03-22T08:53:44;100230.94;;;24.14;30.31
22662;BME280;11497;52.222;21.246;2023-03-22T08:56:32;100237.44;;;23.33;31.13
22662;BME280;11497;52.222;21.246;2023-03-22T08:59:17;100232.09;;;22.41;31.91
22662;BME280;11497;52.222;21.246;2023-03-22T09:02:04;100232.34;;;21.31;33.42
22662;BME280;11497;52.222;21.246;2023-03-22T09:04:32;100224.97;;;19.50;34.84
22662;BME280;11497;52.222;21.246;2023-03-22T09:07:01;100224.50;;;18.70;36.61
22662;BME280;11497;52.222;21.246;2023-03-22T09:09:30;100209.75;;;18.53;37.96
22662;BME280;11497;52.222;21.246;2023-03-22T09:11:58;100210.41;;;18.57;38.48
22662;BME280;11497;52.222;21.246;2023-03-22T09:14:26;100201.94;;;17.87;39.62
22662;BME280;11497;52.222;21.246;2023-03-22T09:16:54;100208.06;;;17.87;40.13
22662;BME280;11497;52.222;21.246;2023-03-22T09:19:22;100197.59;;;17.59;40.99
22662;BME280;11497;52.222;21.246;2023-03-22T09:21:50;100204.41;;;17.22;41.54
22662;BME280;11497;52.222;21.246;2023-03-22T09:24:30;100200.59;;;16.85;42.43
22662;BME280;11497;52.222;21.246;2023-03-22T09:27:01;100199.84;;;16.24;42.75
22662;BME280;11497;52.222;21.246;2023-03-22T09:29:30;100206.63;;;15.84;43.21
22662;BME280;11497;52.222;21.246;2023-03-22T09:32:01;100201.03;;;15.75;43.97
22662;BME280;11497;52.222;21.246;2023-03-22T09:34:32;100194.56;;;15.64;44.44
22662;BME280;11497;52.222;21.246;2023-03-22T09:37:00;100205.97;;;15.18;45.37
22662;BME280;11497;52.222;21.246;2023-03-22T09:39:39;100189.81;;;14.92;46.41
22662;BME280;11497;52.222;21.246;2023-03-22T09:42:42;100195.59;;;14.83;46.80
22662;BME280;11497;52.222;21.246;2023-03-22T09:45:19;100186.84;;;14.50;47.81
22662;BME280;11497;52.222;21.246;2023-03-22T09:47:53;100187.97;;;13.94;49.38
22662;BME280;11497;52.222;21.246;2023-03-22T09:50:28;100187.81;;;13.80;50.16
22662;BME280;11497;52.222;21.246;2023-03-22T09:52:57;100187.72;;;13.64;50.95
22662;BME280;11497;52.222;21.246;2023-03-22T09:55:55;100180.75;;;13.63;51.82
22662;BME280;11497;52.222;21.246;2023-03-22T10:06:47;100161.94;;;13.88;52.32
22662;BME280;11497;52.222;21.246;2023-03-22T10:14:55;100151.59;;;14.02;52.75
22662;BME280;11497;52.222;21.246;2023-03-22T10:17:28;100155.00;;;14.21;52.33
22662;BME280;11497;52.222;21.246;2023-03-22T10:22:50;100136.38;;;14.42;52.88
22662;BME280;11497;52.222;21.246;2023-03-22T10:25:23;100140.81;;;14.24;52.97
22662;BME280;11497;52.222;21.246;2023-03-22T10:27:54;100135.47;;;14.25;53.06
22662;BME280;11497;52.222;21.246;2023-03-22T10:30:26;100138.53;;;14.33;53.05
22662;BME280;11497;52.222;21.246;2023-03-22T10:33:00;100136.69;;;13.85;53.63
22662;BME280;11497;52.222;21.246;2023-03-22T10:35:29;100141.44;;;14.12;53.44
22662;BME280;11497;52.222;21.246;2023-03-22T10:38:01;100145.34;;;14.38;53.31
22662;BME280;11497;52.222;21.246;2023-03-22T10:40:32;100142.75;;;14.20;53.48
22662;BME280;11497;52.222;21.246;2023-03-22T10:45:38;100142.53;;;14.41;52.73
22662;BME280;11497;52.222;21.246;2023-03-22T10:50:42;100138.81;;;14.62;52.92
22662;BME280;11497;52.222;21.246;2023-03-22T10:53:25;100133.78;;;14.40;52.99
22662;BME280;11497;52.222;21.246;2023-03-22T10:55:54;100134.34;;;14.47;53.11
22662;BME280;11497;52.222;21.246;2023-03-22T10:58:29;100134.03;;;14.36;53.28
22662;BME280;11497;52.222;21.246;2023-03-22T11:00:58;100142.44;;;14.26;54.00
22662;BME280;11497;52.222;21.246;2023-03-22T11:06:08;100133.78;;;14.24;53.32
22662;BME280;11497;52.222;21.246;2023-03-22T11:14:22;100143.38;;;14.08;53.34
22662;BME280;11497;52.222;21.246;2023-03-22T11:19:36;100127.16;;;13.83;54.34
22662;BME280;11497;52.222;21.246;2023-03-22T11:22:23;100122.34;;;14.08;54.46
22662;BME280;11497;52.222;21.246;2023-03-22T11:24:53;100124.78;;;14.28;54.79
22662;BME280;11497;52.222;21.246;2023-03-22T11:27:27;100116.44;;;14.36;54.02
22662;BME280;11497;52.222;21.246;2023-03-22T11:30:16;100121.38;;;14.75;53.27
22662;BME280;11497;52.222;21.246;2023-03-22T11:32:47;100120.59;;;14.73;53.20
22662;BME280;11497;52.222;21.246;2023-03-22T11:35:19;100112.53;;;14.76;52.94
22662;BME280;11497;52.222;21.246;2023-03-22T11:37:49;100119.69;;;14.58;52.86
22662;BME280;11497;52.222;21.246;2023-03-22T11:42:53;100113.56;;;14.41;53.51
22662;BME280;11497;52.222;21.246;2023-03-22T11:45:34;100110.16;;;14.23;53.57
22662;BME280;11497;52.222;21.246;2023-03-22T11:48:14;100105.59;;;13.76;54.48
22662;BME280;11497;52.222;21.246;2023-03-22T11:50:44;100109.19;;;13.91;55.01
22662;BME280;11497;52.222;21.246;2023-03-22T11:53:18;100093.44;;;13.74;55.46
22662;BME280;11497;52.222;21.246;2023-03-22T11:55:49;100094.59;;;13.85;55.74
22662;BME280;11497;52.222;21.246;2023-03-22T12:01:41;100082.72;;;13.94;55.89
22662;BME280;11497;52.222;21.246;2023-03-22T12:04:10;100080.78;;;14.30;55.31
22662;BME280;11497;52.222;21.246;2023-03-22T12:06:41;100077.78;;;14.54;54.59
22662;BME280;11497;52.222;21.246;2023-03-22T12:12:31;100072.63;;;15.29;53.33
22662;BME280;11497;52.222;21.246;2023-03-22T12:17:44;100060.34;;;15.44;52.25
22662;BME280;11497;52.222;21.246;2023-03-22T12:23:17;100047.13;;;15.60;51.68
22662;BME280;11497;52.222;21.246;2023-03-22T12:28:52;100043.38;;;15.78;51.00
22662;BME280;11497;52.222;21.246;2023-03-22T12:31:26;100055.88;;;15.60;51.74
22662;BME280;11497;52.222;21.246;2023-03-22T12:34:02;100055.53;;;15.67;50.85
22662;BME280;11497;52.222;21.246;2023-03-22T12:36:39;100040.66;;;15.80;50.97
22662;BME280;11497;52.222;21.246;2023-03-22T12:39:21;100038.59;;;15.85;50.94
22662;BME280;11497;52.222;21.246;2023-03-22T12:41:54;100034.16;;;15.85;51.18
22662;BME280;11497;52.222;21.246;2023-03-22T12:44:35;100038.16;;;15.62;51.35
22662;BME280;11497;52.222;21.246;2023-03-22T12:47:11;100032.84;;;15.48;51.74
22662;BME280;11497;52.222;21.246;2023-03-22T12:49:48;100033.78;;;15.47;51.81
22662;BME280;11497;52.222;21.246;2023-03-22T12:52:32;100038.16;;;15.62;51.70
22662;BME280;11497;52.222;21.246;2023-03-22T12:55:25;100033.31;;;15.85;51.78
22662;BME280;11497;52.222;21.246;2023-03-22T12:57:54;100036.22;;;16.09;51.43
22662;BME280;11497;52.222;21.246;2023-03-22T13:00:38;100030.75;;;16.12;51.15
22662;BME280;11497;52.222;21.246;2023-03-22T13:03:26;100030.38;;;16.04;51.00
22662;BME280;11497;52.222;21.246;2023-03-22T13:06:03;100025.69;;;15.94;50.91
22662;BME280;11497;52.222;21.246;2023-03-22T13:11:36;100015.97;;;16.09;51.11
22662;BME280;11497;52.222;21.246;2023-03-22T13:14:04;100015.41;;;15.90;51.05
22662;BME280;11497;52.222;21.246;2023-03-22T13:16:47;100012.88;;;15.88;51.04
22662;BME280;11497;52.222;21.246;2023-03-22T13:19:35;100009.56;;;16.13;51.22
22662;BME280;11497;52.222;21.246;2023-03-22T13:27:51;100011.19;;;15.43;51.96
22662;BME280;11497;52.222;21.246;2023-03-22T13:32:53;100004.59;;;14.90;52.44
22662;BME280;11497;52.222;21.246;2023-03-22T13:35:24;99994.22;;;15.03;52.84
22662;BME280;11497;52.222;21.246;2023-03-22T13:38:01;99990.63;;;15.34;52.69
22662;BME280;11497;52.222;21.246;2023-03-22T13:40:33;99992.44;;;15.18;52.76
22662;BME280;11497;52.222;21.246;2023-03-22T13:46:10;99988.03;;;15.18;52.68
22662;BME280;11497;52.222;21.246;2023-03-22T13:54:19;99990.44;;;14.77;53.31
22662;BME280;11497;52.222;21.246;2023-03-22T13:56:55;99990.44;;;14.77;53.46
22662;BME280;11497;52.222;21.246;2023-03-22T14:04:57;99971.91;;;14.31;54.78
22662;BME280;11497;52.222;21.246;2023-03-22T14:07:55;99980.75;;;14.30;55.11
22662;BME280;11497;52.222;21.246;2023-03-22T14:13:13;99970.22;;;14.30;55.06
22662;BME280;11497;52.222;21.246;2023-03-22T14:15:52;99967.16;;;14.38;55.44
22662;BME280;11497;52.222;21.246;2023-03-22T14:18:25;99974.00;;;14.42;55.12
22662;BME280;11497;52.222;21.246;2023-03-22T14:21:00;99970.34;;;14.45;55.28
22662;BME280;11497;52.222;21.246;2023-03-22T14:23:38;99974.00;;;14.58;55.26
22662;BME280;11497;52.222;21.246;2023-03-22T14:26:17;99962.38;;;14.76;55.04
22662;BME280;11497;52.222;21.246;2023-03-22T14:28:44;99968.41;;;14.78;54.83
22662;BME280;11497;52.222;21.246;2023-03-22T14:31:41;99970.34;;;14.90;54.70
22662;BME280;11497;52.222;21.246;2023-03-22T14:34:15;99968.41;;;14.94;54.69
22662;BME280;11497;52.222;21.246;2023-03-22T14:36:45;99960.91;;;14.72;55.10
22662;BME280;11497;52.222;21.246;2023-03-22T14:39:24;99952.22;;;14.70;54.97
22662;BME280;11497;52.222;21.246;2023-03-22T14:42:03;99959.38;;;14.68;54.92
22662;BME280;11497;52.222;21.246;2023-03-22T14:44:42;99960.06;;;14.56;55.17
22662;BME280;11497;52.222;21.246;2023-03-22T14:47:16;99965.16;;;14.43;55.90
22662;BME280;11497;52.222;21.246;2023-03-22T14:49:46;99958.66;;;14.33;56.13
22662;BME280;11497;52.222;21.246;2023-03-22T14:52:18;99953.16;;;14.38;56.04
22662;BME280;11497;52.222;21.246;2023-03-22T14:54:50;99954.25;;;14.33;56.46
22662;BME280;11497;52.222;21.246;2023-03-22T14:57:18;99953.91;;;14.40;56.52
22662;BME280;11497;52.222;21.246;2023-03-22T14:59:46;99946.81;;;14.26;56.98
22662;BME280;11497;52.222;21.246;2023-03-22T15:04:52;99947.50;;;14.45;57.10
22662;BME280;11497;52.222;21.246;2023-03-22T15:07:19;99946.13;;;14.22;57.16
22662;BME280;11497;52.222;21.246;2023-03-22T15:09:47;99941.97;;;14.18;57.44
22662;BME280;11497;52.222;21.246;2023-03-22T15:12:15;99941.69;;;14.07;57.80